| time (UTC) | temp F | wind direction | speed knots | gust knots | rain 1hr in | rain 24hr in | rain mn in | humidity % | barometer mb |
| 20260507224553 | 53 | 230 | 3.5 | 11.3 | 0.00 | 0.38 | 0.00 | 40 | 1006.3 |
| 20260507224052 | 54 | 262 | 4.3 | 10.4 | 0.00 | 0.38 | 0.00 | 39 | 1006.2 |
| 20260507223552 | 54 | 271 | 1.7 | 10.4 | 0.00 | 0.38 | 0.00 | 42 | 1006.2 |
| 20260507223052 | 54 | 324 | 1.7 | 12.2 | 0.00 | 0.38 | 0.00 | 43 | 1006.1 |
| 20260507222551 | 54 | 274 | 0.0 | 12.2 | 0.00 | 0.38 | 0.00 | 41 | 1006.0 |
| 20260507222052 | 53 | 312 | 3.5 | 9.6 | 0.00 | 0.38 | 0.00 | 41 | 1006.1 |
| 20260507221550 | 53 | 157 | 2.6 | 8.7 | 0.00 | 0.38 | 0.00 | 40 | 1006.0 |
| 20260507221049 | 54 | 288 | 3.5 | 8.7 | 0.00 | 0.38 | 0.00 | 39 | 1006.0 |
| 20260507220549 | 55 | 211 | 2.6 | 10.4 | 0.00 | 0.38 | 0.00 | 43 | 1006.0 |
| 20260507220049 | 55 | 245 | 2.6 | 10.4 | 0.00 | 0.38 | 0.00 | 40 | 1006.0 |
| 20260507215553 | 54 | 286 | 5.2 | 10.4 | 0.00 | 0.44 | 0.00 | 39 | 1006.0 |
| 20260507215049 | 55 | 227 | 3.5 | 13.0 | 0.00 | 0.44 | 0.00 | 39 | 1006.0 |
| 20260507214551 | 55 | 240 | 6.1 | 13.0 | 0.00 | 0.44 | 0.00 | 37 | 1006.0 |
| 20260507214051 | 56 | 324 | 1.7 | 13.9 | 0.00 | 0.44 | 0.00 | 43 | 1006.0 |
| 20260507213548 | 56 | 294 | 4.3 | 13.9 | 0.00 | 0.44 | 0.00 | 39 | 1005.9 |
| 20260507213056 | 55 | 280 | 6.1 | 13.9 | 0.00 | 0.44 | 0.00 | 39 | 1006.0 |
| 20260507212550 | 55 | 239 | 1.7 | 16.5 | 0.00 | 0.44 | 0.00 | 38 | 1006.0 |
| 20260507212047 | 55 | 284 | 4.3 | 16.5 | 0.00 | 0.44 | 0.00 | 39 | 1006.0 |
| 20260507211548 | 56 | 253 | 1.7 | 13.9 | 0.00 | 0.44 | 0.00 | 39 | 1005.8 |
| 20260507211047 | 56 | 203 | 3.5 | 13.9 | 0.00 | 0.44 | 0.00 | 39 | 1006.0 |
| 20260507210547 | 56 | 327 | 7.0 | 15.6 | 0.00 | 0.44 | 0.00 | 37 | 1005.9 |
| 20260507210047 | 56 | 273 | 8.7 | 15.6 | 0.00 | 0.44 | 0.00 | 36 | 1005.8 |
| 20260507205546 | 57 | 260 | 7.0 | 13.9 | 0.00 | 0.47 | 0.00 | 36 | 1005.8 |
| 20260507205050 | 57 | 271 | 6.1 | 13.9 | 0.00 | 0.47 | 0.00 | 38 | 1005.9 |
| 20260507204645 | 56 | 292 | 2.6 | 10.4 | 0.00 | 0.47 | 0.00 | 42 | 1005.9 |
| 20260507204047 | 55 | 261 | 2.6 | 12.2 | 0.00 | 0.47 | 0.00 | 44 | 1005.8 |
| 20260507203545 | 55 | 219 | 5.2 | 12.2 | 0.00 | 0.47 | 0.00 | 38 | 1005.9 |
| 20260507203045 | 55 | 207 | 2.6 | 10.4 | 0.00 | 0.47 | 0.00 | 40 | 1005.8 |
| 20260507202544 | 55 | 236 | 1.7 | 12.2 | 0.00 | 0.47 | 0.00 | 42 | 1005.8 |
| 20260507202043 | 55 | 31 | 0.9 | 12.2 | 0.00 | 0.47 | 0.00 | 44 | 1005.8 |
| 20260507201549 | 56 | 319 | 6.1 | 13.0 | 0.00 | 0.47 | 0.00 | 41 | 1005.8 |
| 20260507201044 | 54 | 355 | 3.5 | 13.0 | 0.00 | 0.47 | 0.00 | 44 | 1005.9 |
| 20260507200546 | 54 | 284 | 0.9 | 10.4 | 0.00 | 0.47 | 0.00 | 48 | 1005.9 |
| 20260507200049 | 54 | 360 | 1.7 | 7.0 | 0.00 | 0.47 | 0.00 | 47 | 1005.9 |
| 20260507195542 | 54 | 331 | 2.6 | 10.4 | 0.00 | 0.60 | 0.00 | 45 | 1005.9 |
| 20260507195044 | 54 | 336 | 5.2 | 10.4 | 0.00 | 0.60 | 0.00 | 44 | 1005.9 |
| 20260507194548 | 55 | 33 | 1.7 | 7.0 | 0.00 | 0.60 | 0.00 | 50 | 1006.0 |
| 20260507194042 | 55 | 237 | 1.7 | 7.0 | 0.00 | 0.60 | 0.00 | 48 | 1005.9 |
| 20260507193540 | 55 | 25 | 2.6 | 10.4 | 0.00 | 0.60 | 0.00 | 51 | 1006.0 |
| 20260507193041 | 55 | 342 | 2.6 | 10.4 | 0.00 | 0.60 | 0.00 | 46 | 1006.0 |
| 20260507192539 | 55 | 286 | 1.7 | 7.8 | 0.00 | 0.60 | 0.00 | 45 | 1006.2 |
| 20260507192038 | 55 | 336 | 1.7 | 8.7 | 0.00 | 0.60 | 0.00 | 44 | 1006.1 |
| 20260507191543 | 56 | 278 | 3.5 | 8.7 | 0.00 | 0.60 | 0.00 | 42 | 1006.0 |
| 20260507191039 | 57 | 40 | 3.5 | 12.2 | 0.00 | 0.60 | 0.00 | 44 | 1006.2 |
| 20260507190538 | 57 | 236 | 6.1 | 12.2 | 0.00 | 0.60 | 0.00 | 43 | 1006.1 |
| 20260507190037 | 57 | 279 | 5.2 | 18.2 | 0.00 | 0.60 | 0.00 | 42 | 1006.3 |
| 20260507185538 | 57 | 244 | 7.0 | 13.9 | 0.00 | 0.64 | 0.00 | 44 | 1006.2 |
| 20260507185038 | 55 | 263 | 6.1 | 13.0 | 0.00 | 0.64 | 0.00 | 44 | 1006.5 |
| 20260507184538 | 55 | 227 | 3.5 | 13.9 | 0.00 | 0.64 | 0.00 | 46 | 1006.5 |
| 20260507184037 | 56 | 310 | 6.1 | 14.8 | 0.00 | 0.64 | 0.00 | 40 | 1006.5 |
| 20260507183535 | 58 | 322 | 3.5 | 7.8 | 0.00 | 0.64 | 0.00 | 48 | 1006.5 |
| 20260507183043 | 56 | 329 | 2.6 | 7.8 | 0.00 | 0.64 | 0.00 | 47 | 1006.4 |
| 20260507182535 | 56 | 94 | 3.5 | 13.0 | 0.00 | 0.64 | 0.00 | 44 | 1006.6 |
| 20260507182035 | 57 | 309 | 5.2 | 15.6 | 0.00 | 0.64 | 0.00 | 43 | 1006.5 |
| 20260507181538 | 57 | 190 | 7.0 | 15.6 | 0.00 | 0.64 | 0.00 | 45 | 1006.5 |
| 20260507181035 | 56 | 46 | 3.5 | 17.4 | 0.00 | 0.64 | 0.00 | 47 | 1006.4 |
| 20260507180534 | 57 | 294 | 7.8 | 17.4 | 0.00 | 0.64 | 0.00 | 46 | 1006.4 |
| 20260507180035 | 57 | 142 | 1.7 | 12.2 | 0.00 | 0.64 | 0.00 | 53 | 1006.6 |
| 20260507175536 | 56 | 155 | 0.9 | 15.6 | 0.00 | 0.74 | 0.00 | 48 | 1006.5 |
| 20260507175033 | 56 | 192 | 6.1 | 15.6 | 0.00 | 0.74 | 0.00 | 43 | 1006.5 |
| 20260507174535 | 56 | 211 | 3.5 | 14.8 | 0.00 | 0.74 | 0.00 | 46 | 1006.6 |
| 20260507174032 | 57 | 275 | 5.2 | 14.8 | 0.00 | 0.74 | 0.00 | 49 | 1006.6 |
| 20260507173532 | 56 | 242 | 7.0 | 14.8 | 0.00 | 0.74 | 0.00 | 46 | 1006.4 |
| 20260507173034 | 56 | 215 | 6.1 | 10.4 | 0.00 | 0.74 | 0.00 | 50 | 1006.6 |
| 20260507172531 | 55 | 288 | 2.6 | 12.2 | 0.00 | 0.74 | 0.00 | 58 | 1006.9 |
| 20260507172030 | 55 | 360 | 1.7 | 12.2 | 0.00 | 0.74 | 0.00 | 51 | 1006.8 |
| 20260507171532 | 54 | 276 | 3.5 | 13.0 | 0.00 | 0.74 | 0.00 | 47 | 1006.9 |
| 20260507171030 | 55 | 279 | 7.0 | 16.5 | 0.00 | 0.74 | 0.00 | 47 | 1006.9 |
| 20260507170530 | 56 | 327 | 2.6 | 16.5 | 0.00 | 0.74 | 0.00 | 50 | 1007.0 |
| 20260507170029 | 57 | 302 | 7.0 | 16.5 | 0.00 | 0.74 | 0.00 | 55 | 1007.0 |
| 20260507165528 | 56 | 290 | 5.2 | 14.8 | 0.00 | 0.76 | 0.00 | 55 | 1006.9 |
| 20260507165028 | 55 | 302 | 1.7 | 9.6 | 0.00 | 0.76 | 0.00 | 53 | 1007.1 |
| 20260507164528 | 56 | 264 | 4.3 | 8.7 | 0.00 | 0.76 | 0.00 | 53 | 1007.1 |
| 20260507164027 | 54 | 346 | 1.7 | 10.4 | 0.00 | 0.76 | 0.00 | 61 | 1007.1 |
| 20260507163526 | 53 | 261 | 5.2 | 10.4 | 0.00 | 0.76 | 0.00 | 58 | 1007.2 |
| 20260507163028 | 54 | 249 | 4.3 | 10.4 | 0.00 | 0.76 | 0.00 | 64 | 1007.5 |
| 20260507162525 | 52 | 284 | 2.6 | 15.6 | 0.00 | 0.76 | 0.00 | 64 | 1007.6 |
| 20260507162024 | 51 | 259 | 6.1 | 15.6 | 0.00 | 0.76 | 0.00 | 60 | 1007.7 |
| 20260507161525 | 53 | 174 | 6.1 | 10.4 | 0.00 | 0.76 | 0.00 | 62 | 1007.8 |
| 20260507161023 | 53 | 5 | 1.7 | 7.0 | 0.00 | 0.76 | 0.00 | 64 | 1007.8 |
| 20260507160526 | 53 | 13 | 1.7 | 7.8 | 0.00 | 0.76 | 0.00 | 59 | 1007.7 |
| 20260507160030 | 54 | 309 | 2.6 | 7.8 | 0.00 | 0.76 | 0.00 | 67 | 1007.9 |
| 20260507155524 | 53 | 89 | 2.6 | 13.9 | 0.00 | 0.76 | 0.00 | 61 | 1007.8 |
| 20260507155020 | 52 | 244 | 2.6 | 13.9 | 0.00 | 0.76 | 0.00 | 63 | 1007.9 |
| 20260507154620 | 52 | 252 | 6.1 | 13.0 | 0.00 | 0.76 | 0.00 | 69 | 1008.0 |
| 20260507154020 | 51 | 267 | 6.1 | 13.9 | 0.00 | 0.76 | 0.00 | 66 | 1008.1 |
| 20260507153519 | 53 | 284 | 4.3 | 13.9 | 0.00 | 0.76 | 0.00 | 68 | 1008.0 |
| 20260507153018 | 52 | 32 | 3.5 | 14.8 | 0.00 | 0.76 | 0.00 | 69 | 1008.0 |
| 20260507152519 | 53 | 259 | 7.0 | 14.8 | 0.00 | 0.76 | 0.00 | 68 | 1007.9 |
| 20260507152018 | 53 | 287 | 6.1 | 13.9 | 0.00 | 0.76 | 0.00 | 67 | 1007.9 |
| 20260507151517 | 52 | 261 | 6.1 | 13.9 | 0.00 | 0.76 | 0.00 | 67 | 1007.9 |
| 20260507151016 | 53 | 281 | 5.2 | 10.4 | 0.00 | 0.76 | 0.00 | 69 | 1008.0 |
| 20260507150516 | 52 | 234 | 2.6 | 9.6 | 0.00 | 0.76 | 0.00 | 73 | 1008.1 |
| 20260507150017 | 52 | 51 | 2.6 | 9.6 | 0.00 | 0.76 | 0.00 | 73 | 1008.0 |
| 20260507145516 | 52 | 301 | 2.6 | 7.0 | 0.00 | 0.76 | 0.00 | 70 | 1008.1 |
| 20260507145016 | 53 | 12 | 1.7 | 8.7 | 0.00 | 0.76 | 0.00 | 71 | 1008.1 |
| 20260507144515 | 52 | 338 | 0.9 | 9.6 | 0.00 | 0.76 | 0.00 | 73 | 1008.1 |
| 20260507144015 | 52 | 325 | 4.3 | 9.6 | 0.00 | 0.76 | 0.00 | 71 | 1008.0 |
| 20260507143514 | 52 | 183 | 1.7 | 8.7 | 0.00 | 0.76 | 0.00 | 76 | 1008.0 |
| 20260507143031 | 52 | 279 | 4.3 | 7.8 | 0.00 | 0.76 | 0.00 | 76 | 1008.1 |
| 20260507142512 | 50 | 295 | 1.7 | 11.3 | 0.00 | 0.76 | 0.00 | 80 | 1008.1 |
| 20260507142011 | 49 | 184 | 2.6 | 13.0 | 0.00 | 0.76 | 0.00 | 78 | 1008.0 |
| 20260507141511 | 49 | 240 | 6.1 | 13.0 | 0.00 | 0.76 | 0.00 | 78 | 1008.1 |
| 20260507141012 | 50 | 215 | 5.2 | 11.3 | 0.00 | 0.76 | 0.00 | 78 | 1008.1 |
| 20260507140510 | 50 | 281 | 1.7 | 8.7 | 0.00 | 0.76 | 0.00 | 79 | 1008.0 |
| 20260507140010 | 50 | 278 | 1.7 | 7.0 | 0.00 | 0.76 | 0.00 | 80 | 1008.0 |
| 20260507135510 | 50 | 360 | 0.9 | 9.6 | 0.00 | 0.76 | 0.00 | 82 | 1008.0 |
| 20260507135010 | 48 | 263 | 1.7 | 9.6 | 0.00 | 0.76 | 0.00 | 82 | 1008.1 |
| 20260507134512 | 48 | 253 | 3.5 | 8.7 | 0.00 | 0.76 | 0.00 | 80 | 1008.1 |
| 20260507134011 | 48 | 247 | 2.6 | 11.3 | 0.00 | 0.76 | 0.00 | 80 | 1008.1 |
| 20260507133510 | 49 | 317 | 3.5 | 11.3 | 0.00 | 0.76 | 0.00 | 79 | 1008.3 |
| 20260507133008 | 50 | 303 | 4.3 | 12.2 | 0.00 | 0.76 | 0.00 | 80 | 1008.1 |
| 20260507132508 | 49 | 233 | 4.3 | 12.2 | 0.00 | 0.76 | 0.00 | 82 | 1008.1 |
| 20260507132009 | 49 | 236 | 6.1 | 9.6 | 0.00 | 0.76 | 0.00 | 79 | 1008.1 |
| 20260507131615 | 49 | 261 | 2.6 | 12.2 | 0.00 | 0.76 | 0.00 | 80 | 1008.2 |
| 20260507131007 | 49 | 261 | 2.6 | 11.3 | 0.00 | 0.76 | 0.00 | 81 | 1008.2 |
| 20260507130506 | 49 | 304 | 6.1 | 11.3 | 0.00 | 0.76 | 0.00 | 79 | 1008.2 |
| 20260507130012 | 49 | 197 | 0.9 | 8.7 | 0.00 | 0.76 | 0.00 | 82 | 1008.3 |
| 20260507125506 | 48 | 277 | 3.5 | 8.7 | 0.00 | 0.76 | 0.00 | 80 | 1008.3 |
| 20260507125004 | 48 | 275 | 0.9 | 7.8 | 0.00 | 0.76 | 0.00 | 82 | 1008.2 |
| 20260507124502 | 48 | 271 | 2.6 | 7.8 | 0.00 | 0.76 | 0.00 | 82 | 1008.0 |
| 20260507124101 | 47 | 261 | 0.9 | 7.0 | 0.00 | 0.76 | 0.00 | 85 | 1008.0 |
| 20260507123600 | 47 | 320 | 2.6 | 7.0 | 0.00 | 0.76 | 0.00 | 84 | 1007.9 |
| 20260507123113 | 47 | 313 | 3.5 | 7.0 | 0.00 | 0.76 | 0.00 | 84 | 1007.9 |
| 20260507122559 | 46 | 248 | 1.7 | 6.1 | 0.00 | 0.76 | 0.00 | 85 | 1007.8 |
| 20260507122058 | 46 | 223 | 2.6 | 5.2 | 0.00 | 0.76 | 0.00 | 86 | 1008.0 |
| 20260507121556 | 46 | 227 | 2.6 | 5.2 | 0.00 | 0.76 | 0.00 | 87 | 1008.1 |
| 20260507121054 | 46 | 277 | 0.9 | 5.2 | 0.00 | 0.76 | 0.00 | 89 | 1008.2 |
| 20260507120553 | 45 | 195 | 1.7 | 8.7 | 0.00 | 0.76 | 0.00 | 90 | 1008.1 |
| 20260507120053 | 45 | 243 | 4.3 | 8.7 | 0.00 | 0.76 | 0.00 | 88 | 1008.4 |
| 20260507115553 | 45 | 237 | 2.6 | 8.7 | 0.00 | 0.76 | 0.00 | 89 | 1008.3 |
| 20260507115053 | 44 | 290 | 3.5 | 6.1 | 0.00 | 0.76 | 0.00 | 90 | 1008.2 |
| 20260507114554 | 44 | 284 | 1.7 | 8.7 | 0.00 | 0.76 | 0.00 | 90 | 1008.1 |
| 20260507114054 | 44 | 209 | 1.7 | 8.7 | 0.00 | 0.76 | 0.00 | 91 | 1008.1 |
| 20260507113549 | 44 | 228 | 1.7 | 9.6 | 0.00 | 0.76 | 0.00 | 91 | 1008.2 |
| 20260507113049 | 43 | 272 | 4.3 | 9.6 | 0.00 | 0.76 | 0.00 | 92 | 1008.1 |
| 20260507112551 | 43 | 254 | 3.5 | 7.8 | 0.00 | 0.76 | 0.00 | 92 | 1008.0 |
| 20260507112050 | 43 | 271 | 1.7 | 7.8 | 0.00 | 0.76 | 0.00 | 93 | 1008.0 |
| 20260507111548 | 42 | 257 | 2.6 | 7.8 | 0.00 | 0.76 | 0.00 | 94 | 1007.9 |
| 20260507111048 | 42 | 294 | 2.6 | 10.4 | 0.00 | 0.76 | 0.00 | 95 | 1007.9 |
| 20260507110548 | 42 | 237 | 3.5 | 10.4 | 0.00 | 0.76 | 0.00 | 95 | 1008.0 |
| 20260507110050 | 42 | 226 | 3.5 | 8.7 | 0.00 | 0.76 | 0.00 | 96 | 1008.0 |
| 20260507105545 | 41 | 271 | 2.6 | 8.7 | 0.00 | 0.76 | 0.00 | 97 | 1008.1 |
| 20260507105045 | 41 | 253 | 3.5 | 9.6 | 0.00 | 0.76 | 0.00 | 98 | 1008.0 |
| 20260507104544 | 41 | 237 | 2.6 | 9.6 | 0.00 | 0.76 | 0.00 | 98 | 1007.9 |
| 20260507104043 | 41 | 247 | 2.6 | 6.1 | 0.00 | 0.76 | 0.00 | 97 | 1007.7 |
| 20260507103543 | 41 | 261 | 1.7 | 6.1 | 0.00 | 0.76 | 0.00 | 97 | 1007.6 |
| 20260507103043 | 41 | 229 | 2.6 | 5.2 | 0.00 | 0.76 | 0.00 | 97 | 1007.6 |
| 20260507102544 | 41 | 221 | 1.7 | 5.2 | 0.00 | 0.76 | 0.00 | 97 | 1007.7 |
| 20260507102042 | 41 | 264 | 2.6 | 7.8 | 0.00 | 0.76 | 0.00 | 98 | 1007.8 |
| 20260507101542 | 40 | 304 | 3.5 | 7.8 | 0.00 | 0.76 | 0.00 | 98 | 1007.8 |
| 20260507101041 | 40 | 280 | 2.6 | 7.0 | 0.00 | 0.76 | 0.00 | 98 | 1007.8 |
| 20260507100540 | 40 | 279 | 3.5 | 8.7 | 0.00 | 0.76 | 0.00 | 98 | 1007.8 |
| 20260507100052 | 40 | 277 | 1.7 | 6.1 | 0.00 | 0.76 | 0.00 | 98 | 1007.9 |
| 20260507095539 | 41 | 300 | 2.6 | 7.0 | 0.00 | 0.76 | 0.00 | 98 | 1007.8 |
| 20260507095041 | 41 | 224 | 3.5 | 7.8 | 0.00 | 0.76 | 0.00 | 98 | 1007.9 |
| 20260507094537 | 41 | 261 | 3.5 | 9.6 | 0.00 | 0.76 | 0.00 | 99 | 1007.9 |
| 20260507094037 | 41 | 282 | 3.5 | 10.4 | 0.00 | 0.76 | 0.00 | 99 | 1008.0 |
| 20260507093536 | 41 | 284 | 3.5 | 10.4 | 0.00 | 0.76 | 0.00 | 98 | 1008.0 |
| 20260507093036 | 41 | 238 | 2.6 | 5.2 | 0.00 | 0.76 | 0.00 | 98 | 1008.0 |
| 20260507092536 | 41 | 268 | 2.6 | 6.1 | 0.00 | 0.76 | 0.00 | 98 | 1007.9 |
| 20260507092032 | 41 | 199 | 3.5 | 7.0 | 0.00 | 0.76 | 0.00 | 97 | 1007.7 |
| 20260507091538 | 41 | 241 | 1.7 | 7.0 | 0.00 | 0.76 | 0.00 | 97 | 1007.5 |
| 20260507091032 | 41 | 291 | 2.6 | 7.0 | 0.00 | 0.76 | 0.00 | 97 | 1007.5 |
| 20260507090531 | 42 | 279 | 2.6 | 8.7 | 0.00 | 0.76 | 0.00 | 97 | 1007.6 |
| 20260507090031 | 42 | 263 | 2.6 | 10.4 | 0.00 | 0.76 | 0.00 | 98 | 1007.5 |
| 20260507085529 | 42 | 280 | 2.6 | 10.4 | 0.00 | 0.76 | 0.00 | 98 | 1007.6 |
| 20260507085029 | 42 | 271 | 3.5 | 7.8 | 0.00 | 0.76 | 0.00 | 98 | 1007.7 |
| 20260507084530 | 42 | 287 | 2.6 | 7.0 | 0.00 | 0.76 | 0.00 | 98 | 1007.5 |
| 20260507084028 | 42 | 279 | 1.7 | 7.0 | 0.00 | 0.76 | 0.00 | 98 | 1007.4 |
| 20260507083527 | 42 | 281 | 3.5 | 10.4 | 0.00 | 0.76 | 0.00 | 98 | 1007.3 |
| 20260507083027 | 42 | 275 | 3.5 | 10.4 | 0.00 | 0.76 | 0.00 | 98 | 1007.4 |
| 20260507082526 | 42 | 286 | 1.7 | 8.7 | 0.00 | 0.76 | 0.00 | 98 | 1007.3 |
| 20260507082025 | 42 | 279 | 2.6 | 8.7 | 0.00 | 0.76 | 0.00 | 99 | 1007.4 |
| 20260507081525 | 42 | 280 | 4.3 | 11.3 | 0.00 | 0.76 | 0.00 | 99 | 1007.5 |
| 20260507081023 | 42 | 301 | 5.2 | 11.3 | 0.00 | 0.76 | 0.00 | 99 | 1007.5 |
| 20260507080523 | 42 | 269 | 5.2 | 11.3 | 0.00 | 0.76 | 0.00 | 99 | 1007.3 |
| 20260507080022 | 43 | 277 | 5.2 | 10.4 | 0.00 | 0.76 | 0.00 | 99 | 1007.2 |
| 20260507075522 | 43 | 246 | 5.2 | 10.4 | 0.00 | 0.76 | 0.00 | 100 | 1007.1 |
| 20260507075021 | 43 | 257 | 6.1 | 10.4 | 0.00 | 0.76 | 0.00 | 100 | 1007.1 |
| 20260507074520 | 43 | 248 | 6.1 | 9.6 | 0.00 | 0.76 | 0.00 | 100 | 1007.2 |
| 20260507074023 | 43 | 262 | 4.3 | 7.8 | 0.00 | 0.76 | 0.00 | 100 | 1007.0 |
| 20260507073518 | 43 | 287 | 2.6 | 6.1 | 0.00 | 0.76 | 0.00 | 100 | 1006.9 |
| 20260507073018 | 43 | 292 | 0.9 | 6.1 | 0.00 | 0.76 | 0.00 | 100 | 1006.9 |
| 20260507072518 | 43 | 343 | 0.9 | 6.1 | 0.00 | 0.76 | 0.00 | 100 | 1006.7 |
| 20260507072015 | 43 | 267 | 1.7 | 6.1 | 0.00 | 0.76 | 0.00 | 100 | 1006.7 |
| 20260507071523 | 43 | 279 | 0.9 | 6.1 | 0.00 | 0.76 | 0.00 | 100 | 1006.6 |
| 20260507071020 | 43 | 257 | 1.7 | 6.1 | 0.00 | 0.76 | 0.00 | 100 | 1006.9 |
| 20260507070515 | 43 | 281 | 0.0 | 5.2 | 0.00 | 0.76 | 0.00 | 100 | 1006.7 |
| 20260507070014 | 43 | 266 | 0.9 | 6.1 | 0.00 | 0.76 | 0.00 | 100 | 1007.0 |
| 20260507065514 | 43 | 306 | 1.7 | 6.1 | 0.00 | 0.76 | 0.00 | 100 | 1007.2 |
| 20260507065013 | 43 | 264 | 1.7 | 5.2 | 0.00 | 0.76 | 0.00 | 100 | 1007.1 |
| 20260507064512 | 43 | 46 | 0.9 | 4.3 | 0.00 | 0.76 | 0.00 | 100 | 1006.9 |
| 20260507064015 | 43 | 284 | 1.7 | 4.3 | 0.00 | 0.76 | 0.00 | 100 | 1007.0 |
| 20260507063512 | 43 | 218 | 0.9 | 6.1 | 0.00 | 0.76 | 0.00 | 100 | 1006.9 |
| 20260507063011 | 43 | 261 | 2.6 | 7.0 | 0.00 | 0.76 | 0.00 | 100 | 1007.1 |
| 20260507062512 | 43 | 225 | 1.7 | 6.1 | 0.00 | 0.76 | 0.00 | 100 | 1006.8 |
| 20260507062009 | 44 | 221 | 0.9 | 7.0 | 0.00 | 0.76 | 0.00 | 100 | 1006.7 |
| 20260507061509 | 44 | 193 | 3.5 | 7.8 | 0.00 | 0.76 | 0.00 | 100 | 1006.6 |
| 20260507061010 | 44 | 212 | 2.6 | 11.3 | 0.00 | 0.76 | 0.00 | 100 | 1006.7 |
| 20260507060611 | 44 | 196 | 1.7 | 11.3 | 0.00 | 0.76 | 0.00 | 100 | 1006.6 |
| 20260507060008 | 44 | 221 | 3.5 | 9.6 | 0.00 | 0.76 | 0.00 | 100 | 1006.7 |
| 20260507055508 | 44 | 234 | 3.5 | 14.8 | 0.00 | 0.76 | 0.00 | 100 | 1006.6 |
| 20260507055007 | 44 | 221 | 4.3 | 14.8 | 0.00 | 0.76 | 0.00 | 100 | 1006.4 |
| 20260507054506 | 44 | 219 | 4.3 | 12.2 | 0.00 | 0.76 | 0.00 | 100 | 1006.2 |
| 20260507054006 | 44 | 266 | 3.5 | 13.0 | 0.00 | 0.76 | 0.00 | 100 | 1006.2 |
| 20260507053506 | 44 | 198 | 3.5 | 13.0 | 0.00 | 0.76 | 0.00 | 100 | 1006.4 |
| 20260507053006 | 44 | 257 | 5.2 | 15.6 | 0.00 | 0.76 | 0.00 | 100 | 1006.4 |
| 20260507052504 | 44 | 242 | 6.1 | 15.6 | 0.00 | 0.76 | 0.00 | 100 | 1006.4 |
| 20260507052003 | 44 | 259 | 7.0 | 13.0 | 0.00 | 0.76 | 0.00 | 100 | 1006.4 |
| 20260507051502 | 44 | 298 | 7.0 | 13.0 | 0.00 | 0.76 | 0.00 | 100 | 1006.4 |
| 20260507051002 | 44 | 266 | 5.2 | 12.2 | 0.00 | 0.76 | 0.00 | 100 | 1006.4 |
| 20260507050501 | 44 | 186 | 5.2 | 12.2 | 0.00 | 0.76 | 0.00 | 100 | 1006.3 |
| 20260507050100 | 44 | 255 | 5.2 | 13.0 | 0.00 | 0.76 | 0.00 | 100 | 1006.4 |
| 20260507045600 | 44 | 243 | 6.1 | 13.0 | 0.00 | 0.76 | 0.00 | 100 | 1006.4 |
| 20260507045059 | 44 | 236 | 7.0 | 10.4 | 0.00 | 0.76 | 0.00 | 100 | 1006.5 |
| 20260507044600 | 45 | 232 | 4.3 | 10.4 | 0.00 | 0.76 | 0.00 | 100 | 1006.3 |
| 20260507044057 | 45 | 259 | 5.2 | 8.7 | 0.00 | 0.76 | 0.00 | 100 | 1006.5 |
| 20260507043556 | 45 | 244 | 4.3 | 8.7 | 0.00 | 0.76 | 0.00 | 100 | 1006.5 |
| 20260507043058 | 45 | 240 | 4.3 | 10.4 | 0.01 | 0.76 | 0.00 | 100 | 1006.4 |
| 20260507042557 | 45 | 276 | 5.2 | 12.2 | 0.01 | 0.76 | 0.00 | 100 | 1006.5 |
| 20260507042053 | 45 | 288 | 4.3 | 12.2 | 0.01 | 0.76 | 0.00 | 100 | 1006.4 |
| 20260507041553 | 45 | 240 | 2.6 | 10.4 | 0.01 | 0.76 | 0.00 | 100 | 1006.1 |
| 20260507041053 | 45 | 208 | 5.2 | 13.9 | 0.01 | 0.76 | 0.00 | 100 | 1006.4 |
| 20260507040551 | 45 | 315 | 6.1 | 13.9 | 0.02 | 0.76 | 0.00 | 100 | 1006.3 |
| 20260507040049 | 45 | 94 | 3.5 | 13.9 | 0.02 | 0.76 | 0.00 | 100 | 1006.4 |
| 20260507035549 | 45 | 273 | 5.2 | 10.4 | 0.02 | 0.76 | 0.76 | 100 | 1006.4 |
| 20260507035048 | 45 | 271 | 4.3 | 10.4 | 0.02 | 0.76 | 0.76 | 100 | 1006.4 |
| 20260507034548 | 45 | 284 | 2.6 | 9.6 | 0.02 | 0.76 | 0.76 | 100 | 1006.3 |
| 20260507034047 | 45 | 242 | 3.5 | 10.4 | 0.02 | 0.76 | 0.76 | 100 | 1006.3 |
| 20260507033547 | 46 | 254 | 2.6 | 10.4 | 0.01 | 0.75 | 0.75 | 100 | 1006.4 |
| 20260507033046 | 46 | 265 | 3.5 | 11.3 | 0.01 | 0.75 | 0.75 | 100 | 1006.5 |
| 20260507032546 | 46 | 264 | 4.3 | 11.3 | 0.01 | 0.75 | 0.75 | 100 | 1006.3 |
| 20260507032044 | 46 | 281 | 3.5 | 11.3 | 0.01 | 0.75 | 0.75 | 100 | 1006.2 |
| 20260507031545 | 46 | 299 | 7.0 | 11.3 | 0.01 | 0.75 | 0.75 | 100 | 1006.4 |
| 20260507031044 | 46 | 258 | 2.6 | 9.6 | 0.02 | 0.75 | 0.75 | 100 | 1006.2 |
| 20260507030544 | 46 | 277 | 3.5 | 13.9 | 0.01 | 0.74 | 0.74 | 100 | 1006.2 |
| 20260507030042 | 46 | 281 | 6.1 | 13.9 | 0.01 | 0.74 | 0.74 | 100 | 1006.4 |
| 20260507025541 | 46 | 290 | 4.3 | 10.4 | 0.01 | 0.74 | 0.74 | 100 | 1006.4 |
| 20260507025041 | 46 | 236 | 4.3 | 10.4 | 0.01 | 0.74 | 0.74 | 100 | 1006.3 |
| 20260507024542 | 47 | 257 | 4.3 | 12.2 | 0.01 | 0.74 | 0.74 | 100 | 1006.1 |
| 20260507024040 | 46 | 188 | 6.1 | 12.2 | 0.01 | 0.74 | 0.74 | 100 | 1006.0 |
| 20260507023540 | 47 | 286 | 2.6 | 10.4 | 0.02 | 0.74 | 0.74 | 100 | 1005.8 |
| 20260507023043 | 47 | 266 | 3.5 | 11.3 | 0.02 | 0.74 | 0.74 | 100 | 1005.8 |
| 20260507022539 | 47 | 267 | 5.2 | 12.2 | 0.02 | 0.74 | 0.74 | 100 | 1005.7 |
| 20260507022038 | 47 | 288 | 6.1 | 15.6 | 0.02 | 0.74 | 0.74 | 100 | 1005.9 |
| 20260507021542 | 47 | 282 | 8.7 | 15.6 | 0.02 | 0.74 | 0.74 | 100 | 1005.7 |
| 20260507021036 | 47 | 294 | 5.2 | 12.2 | 0.01 | 0.73 | 0.73 | 100 | 1005.7 |
| 20260507020535 | 48 | 273 | 6.1 | 12.2 | 0.01 | 0.73 | 0.73 | 100 | 1005.8 |
| 20260507020036 | 48 | 263 | 6.1 | 16.5 | 0.01 | 0.73 | 0.73 | 100 | 1005.7 |
| 20260507015537 | 48 | 280 | 7.8 | 16.5 | 0.01 | 0.73 | 0.73 | 100 | 1005.6 |
| 20260507015034 | 49 | 268 | 5.2 | 12.2 | 0.01 | 0.73 | 0.73 | 100 | 1005.6 |
| 20260507014531 | 49 | 278 | 4.3 | 13.9 | 0.01 | 0.73 | 0.73 | 100 | 1005.6 |
| 20260507014029 | 49 | 233 | 5.2 | 13.9 | 0.01 | 0.73 | 0.73 | 100 | 1005.5 |
| 20260507013528 | 50 | 279 | 4.3 | 13.0 | 0.01 | 0.72 | 0.72 | 100 | 1005.7 |
| 20260507013027 | 50 | 259 | 6.1 | 13.0 | 0.01 | 0.72 | 0.72 | 100 | 1005.4 |
| 20260507012527 | 50 | 272 | 4.3 | 12.2 | 0.01 | 0.72 | 0.72 | 100 | 1005.3 |
| 20260507012026 | 50 | 237 | 5.2 | 12.2 | 0.01 | 0.72 | 0.72 | 100 | 1005.2 |
| 20260507011524 | 51 | 219 | 4.3 | 12.2 | 0.02 | 0.72 | 0.72 | 100 | 1005.2 |
| 20260507011023 | 51 | 254 | 6.1 | 12.2 | 0.02 | 0.72 | 0.72 | 100 | 1005.1 |
| 20260507010522 | 51 | 245 | 3.5 | 9.6 | 0.02 | 0.72 | 0.72 | 100 | 1005.1 |
| 20260507010026 | 52 | 243 | 3.5 | 10.4 | 0.04 | 0.72 | 0.72 | 100 | 1005.1 |
| 20260507005520 | 52 | 244 | 5.2 | 10.4 | 0.05 | 0.72 | 0.72 | 100 | 1005.2 |
| 20260507005018 | 52 | 268 | 3.5 | 10.4 | 0.06 | 0.72 | 0.72 | 100 | 1005.1 |
| 20260507004519 | 52 | 248 | 3.5 | 8.7 | 0.08 | 0.72 | 0.72 | 100 | 1004.9 |
| 20260507004017 | 52 | 277 | 3.5 | 10.4 | 0.12 | 0.72 | 0.72 | 100 | 1004.9 |
| 20260507003517 | 53 | 263 | 2.6 | 10.4 | 0.13 | 0.71 | 0.71 | 100 | 1004.9 |
| 20260507003015 | 53 | 295 | 1.7 | 10.4 | 0.13 | 0.71 | 0.71 | 100 | 1004.9 |
| 20260507002514 | 53 | 232 | 4.3 | 11.3 | 0.13 | 0.71 | 0.71 | 100 | 1004.7 |
| 20260507002016 | 53 | 306 | 3.5 | 11.3 | 0.14 | 0.71 | 0.71 | 100 | 1004.7 |
| 20260507001516 | 54 | 311 | 1.7 | 10.4 | 0.13 | 0.70 | 0.70 | 100 | 1004.7 |
| 20260507001010 | 54 | 269 | 5.2 | 10.4 | 0.15 | 0.70 | 0.70 | 100 | 1004.7 |
| 20260507000509 | 55 | 241 | 5.2 | 9.6 | 0.17 | 0.69 | 0.69 | 100 | 1004.6 |
| 20260507000009 | 55 | 269 | 3.5 | 8.7 | 0.20 | 0.68 | 0.68 | 100 | 1004.5 |
| 20260506235508 | 56 | 239 | 3.5 | 7.8 | 0.22 | 0.67 | 0.67 | 100 | 1004.3 |
| 20260506235009 | 57 | 256 | 3.5 | 8.7 | 0.23 | 0.65 | 0.65 | 100 | 1004.2 |
| 20260506234509 | 57 | 271 | 2.6 | 8.7 | 0.22 | 0.63 | 0.63 | 100 | 1004.2 |
| 20260506234007 | 58 | 231 | 2.6 | 7.0 | 0.19 | 0.59 | 0.59 | 100 | 1004.2 |
| 20260506233512 | 58 | 229 | 3.5 | 7.8 | 0.19 | 0.57 | 0.57 | 100 | 1004.0 |
| 20260506233011 | 58 | 244 | 2.6 | 5.2 | 0.20 | 0.57 | 0.57 | 100 | 1004.1 |
| 20260506232507 | 58 | 184 | 2.6 | 7.8 | 0.20 | 0.57 | 0.57 | 100 | 1004.0 |
| 20260506232006 | 58 | 276 | 3.5 | 7.8 | 0.19 | 0.56 | 0.56 | 100 | 1003.9 |
| 20260506231506 | 58 | 198 | 2.6 | 7.0 | 0.19 | 0.56 | 0.56 | 100 | 1003.9 |
| 20260506231010 | 58 | 199 | 1.7 | 7.0 | 0.16 | 0.54 | 0.54 | 100 | 1004.1 |
| 20260506230504 | 58 | 264 | 0.9 | 6.1 | 0.13 | 0.51 | 0.51 | 100 | 1004.1 |
| 20260506230014 | 58 | 259 | 0.9 | 6.1 | 0.09 | 0.51 | 0.47 | 100 | 1004.1 |
| 20260506225503 | 58 | 273 | 0.9 | 7.8 | 0.07 | 0.49 | 0.45 | 100 | 1004.1 |
| 20260506225003 | 58 | 221 | 0.9 | 7.8 | 0.04 | 0.46 | 0.42 | 100 | 1004.1 |